createdAt,value
2024-01-09T00:01:29.884Z,9.90
2024-01-09T00:06:32.862Z,8.75
2024-01-09T00:11:35.754Z,10.13
2024-01-09T00:16:38.723Z,15.43
2024-01-09T00:21:42.200Z,11.38
2024-01-09T00:26:47.334Z,9.80
2024-01-09T00:31:51.028Z,10.63
2024-01-09T00:36:54.137Z,8.98
2024-01-09T00:41:56.967Z,11.65
2024-01-09T00:47:01.763Z,9.52
2024-01-09T00:52:05.752Z,9.25
2024-01-09T00:57:09.116Z,8.25
2024-01-09T01:02:12.297Z,8.50
2024-01-09T01:07:15.844Z,8.07
2024-01-09T01:12:18.645Z,7.75
2024-01-09T01:17:21.601Z,7.32
2024-01-09T01:22:24.554Z,7.75
2024-01-09T01:27:27.951Z,7.47
2024-01-09T01:32:30.994Z,8.55
2024-01-09T01:37:34.742Z,7.72
2024-01-09T01:42:37.755Z,9.50
2024-01-09T01:47:40.846Z,9.18
2024-01-09T01:52:45.849Z,8.70
2024-01-09T01:57:51.842Z,9.73
2024-01-09T02:02:55.831Z,8.32
2024-01-09T02:08:00.299Z,11.05
2024-01-09T02:13:07.593Z,7.82
2024-01-09T02:18:11.523Z,8.57
2024-01-09T02:23:15.299Z,7.07
2024-01-09T02:28:26.824Z,8.27
2024-01-09T02:33:31.352Z,7.38
2024-01-09T02:38:37.548Z,9.63
2024-01-09T02:43:41.636Z,8.05
2024-01-09T02:48:45.418Z,7.20
2024-01-09T02:53:51.526Z,8.52
2024-01-09T02:58:54.742Z,8.60
2024-01-09T03:03:57.619Z,6.82
2024-01-09T03:08:59.983Z,9.23
2024-01-09T03:14:03.528Z,8.05
2024-01-09T03:19:07.101Z,8.82
2024-01-09T03:24:10.854Z,8.30
2024-01-09T03:29:14.697Z,5.20
2024-01-09T03:34:18.083Z,9.18
2024-01-09T03:39:21.063Z,5.93
2024-01-09T03:44:23.739Z,7.35
2024-01-09T03:49:26.416Z,6.00
2024-01-09T03:54:29.460Z,6.28
2024-01-09T03:59:32.407Z,6.80
2024-01-09T04:04:39.387Z,7.43
2024-01-09T04:09:43.061Z,6.10
2024-01-09T04:14:48.449Z,6.20
2024-01-09T04:19:53.394Z,6.35
2024-01-09T04:24:56.652Z,7.55
2024-01-09T04:29:59.994Z,5.50
2024-01-09T04:35:03.024Z,6.40
2024-01-09T04:40:07.462Z,6.50
2024-01-09T04:45:12.456Z,7.15
2024-01-09T04:50:18.344Z,6.60
2024-01-09T04:55:22.828Z,5.55
2024-01-09T05:00:27.293Z,6.72
2024-01-09T05:05:30.487Z,7.43
2024-01-09T05:10:36.538Z,7.43
2024-01-09T05:15:41.410Z,6.22
2024-01-09T05:20:46.879Z,5.82
2024-01-09T05:25:52.305Z,6.97
2024-01-09T05:30:56.922Z,6.82
2024-01-09T05:36:00.715Z,5.75
2024-01-09T05:41:04.332Z,5.47
2024-01-09T05:46:07.516Z,4.95
2024-01-09T05:51:12.925Z,5.75
2024-01-09T05:56:16.943Z,4.20
2024-01-09T06:01:21.530Z,4.47
2024-01-09T06:06:25.022Z,4.93
2024-01-09T06:11:29.317Z,5.57
2024-01-09T06:16:32.145Z,6.18
2024-01-09T06:21:35.652Z,8.82
2024-01-09T06:26:40.208Z,5.82
2024-01-09T06:31:43.565Z,6.13
2024-01-09T06:36:47.595Z,6.15
2024-01-09T06:41:51.993Z,9.85
2024-01-09T06:46:55.605Z,8.77
2024-01-09T06:51:59.417Z,12.60
2024-01-09T06:57:04.582Z,11.02
2024-01-09T07:02:07.967Z,12.10
2024-01-09T07:07:12.916Z,12.63
2024-01-09T07:12:17.989Z,14.18
2024-01-09T07:17:20.802Z,14.50
2024-01-09T07:22:24.470Z,15.30
2024-01-09T07:27:28.433Z,9.73
2024-01-09T07:32:31.343Z,11.88
2024-01-09T07:37:34.534Z,16.95
2024-01-09T07:42:43.496Z,10.43
2024-01-09T07:47:52.540Z,10.45
2024-01-09T07:52:55.536Z,10.35
2024-01-09T07:58:00.917Z,8.38
2024-01-09T08:13:12.689Z,13.98
2024-01-09T08:18:16.948Z,8.98
2024-01-09T08:23:20.152Z,11.48
2024-01-09T08:28:24.887Z,16.25
2024-01-09T08:33:32.601Z,10.23
2024-01-09T08:38:36.064Z,11.68
2024-01-09T08:43:38.722Z,10.65
2024-01-09T08:48:42.818Z,9.93
2024-01-09T08:53:46.815Z,12.57
2024-01-09T08:58:51.755Z,11.43
2024-01-09T09:03:54.782Z,11.95
2024-01-09T09:08:58.041Z,11.00
2024-01-09T09:14:14.703Z,10.73
2024-01-09T09:19:20.200Z,10.15
2024-01-09T09:24:23.256Z,13.35
2024-01-09T09:29:36.242Z,15.45
2024-01-09T09:34:44.797Z,10.98
2024-01-09T09:39:49.281Z,10.07
2024-01-09T09:44:53.606Z,13.27
2024-01-09T09:49:57.615Z,8.48
2024-01-09T09:55:01.881Z,10.55
2024-01-09T10:00:12.161Z,14.02
2024-01-09T10:05:18.032Z,9.60
2024-01-09T10:10:22.214Z,12.63
2024-01-09T10:15:25.270Z,9.38
2024-01-09T10:20:31.655Z,10.07
2024-01-09T10:25:34.524Z,10.20
2024-01-09T10:30:43.986Z,9.95
2024-01-09T10:35:48.019Z,11.02
2024-01-09T10:40:57.074Z,8.75
2024-01-09T10:46:04.165Z,10.50
2024-01-09T10:51:07.840Z,11.55
2024-01-09T10:56:11.005Z,28.60
2024-01-09T11:01:15.061Z,18.70
2024-01-09T11:06:18.687Z,10.27
2024-01-09T11:11:23.836Z,23.80
2024-01-09T11:16:27.646Z,14.25
2024-01-09T11:21:32.137Z,14.52
2024-01-09T11:26:36.642Z,12.07
2024-01-09T11:31:42.052Z,12.98
2024-01-09T11:41:51.643Z,10.07
2024-01-09T11:46:55.076Z,11.32
2024-01-09T11:51:58.764Z,16.40
2024-01-09T11:57:02.182Z,10.25
2024-01-09T12:02:08.675Z,9.18
2024-01-09T12:07:13.955Z,12.05
2024-01-09T12:12:25.004Z,10.05
2024-01-09T12:17:37.940Z,10.15
2024-01-09T12:22:41.189Z,9.82
2024-01-09T12:27:43.886Z,10.15
2024-01-09T12:32:47.384Z,9.55
2024-01-09T12:37:51.802Z,10.23
2024-01-09T12:43:14.188Z,9.90
2024-01-09T12:48:17.366Z,10.88
2024-01-09T12:53:21.695Z,14.90
2024-01-09T12:58:25.827Z,15.40
2024-01-09T13:03:29.808Z,13.27
2024-01-09T13:08:35.951Z,12.30
2024-01-09T13:13:44.397Z,13.63
2024-01-09T13:18:48.975Z,12.73
2024-01-09T13:23:54.081Z,12.27
2024-01-09T13:34:05.665Z,10.98
2024-01-09T13:39:11.411Z,15.27
2024-01-09T13:44:16.580Z,12.18
2024-01-09T13:49:19.513Z,11.60
2024-01-09T13:54:27.077Z,11.05
2024-01-09T13:59:30.584Z,12.38
2024-01-09T14:04:33.930Z,10.50
2024-01-09T14:09:41.360Z,11.48
2024-01-09T14:14:44.617Z,12.07
2024-01-09T14:19:47.961Z,15.65
2024-01-09T14:24:51.409Z,11.50
2024-01-09T14:29:56.092Z,11.95
2024-01-09T14:40:14.349Z,11.00
2024-01-09T14:45:18.964Z,11.77
2024-01-09T14:50:22.939Z,11.73
2024-01-09T14:55:28.810Z,11.10
2024-01-09T15:00:32.446Z,12.30
2024-01-09T15:05:35.582Z,12.95
2024-01-09T15:10:38.607Z,12.95
2024-01-09T15:15:41.615Z,12.13
2024-01-09T15:20:44.526Z,11.93
2024-01-09T15:25:48.205Z,11.60
2024-01-09T15:30:52.525Z,11.57
2024-01-09T15:35:58.906Z,11.32
2024-01-09T15:41:11.018Z,13.07
2024-01-09T15:46:14.128Z,15.05
2024-01-09T15:51:20.622Z,15.32
2024-01-09T15:56:25.887Z,15.02
2024-01-09T16:01:28.840Z,11.85
2024-01-09T16:06:34.600Z,11.07
2024-01-09T16:11:38.983Z,13.90
2024-01-09T16:16:43.389Z,11.38
2024-01-09T16:21:46.904Z,20.10
2024-01-09T16:26:49.810Z,15.13
2024-01-09T16:31:54.012Z,14.98
2024-01-09T16:36:57.052Z,12.05
2024-01-09T16:42:01.412Z,16.58
2024-01-09T16:47:04.917Z,13.57
2024-01-09T16:52:09.114Z,14.52
2024-01-09T16:57:19.829Z,21.00
2024-01-09T17:02:24.198Z,16.80
2024-01-09T17:07:28.641Z,14.02
2024-01-09T17:12:35.546Z,22.33
2024-01-09T17:17:45.707Z,24.80
2024-01-09T17:22:49.403Z,15.57
2024-01-09T17:27:54.156Z,14.43
2024-01-09T17:32:58.413Z,14.48
2024-01-09T17:38:00.939Z,17.75
2024-01-09T17:43:05.223Z,21.15
2024-01-09T17:48:08.726Z,16.38
2024-01-09T17:53:12.218Z,18.67
2024-01-09T18:03:18.820Z,17.33
2024-01-09T18:08:21.895Z,16.40
2024-01-09T18:13:25.295Z,18.80
2024-01-09T18:18:30.523Z,15.23
2024-01-09T18:23:33.322Z,14.88
2024-01-09T18:28:40.556Z,16.05
2024-01-09T18:33:46.712Z,17.05
2024-01-09T18:38:50.058Z,15.43
2024-01-09T18:43:54.846Z,13.73
2024-01-09T18:48:59.870Z,17.70
2024-01-09T18:54:04.302Z,14.52
2024-01-09T18:59:07.913Z,13.48
2024-01-09T19:04:12.346Z,15.32
2024-01-09T19:09:16.811Z,16.10
2024-01-09T19:14:20.957Z,18.20
2024-01-09T19:19:25.943Z,15.48
2024-01-09T19:24:29.612Z,20.40
2024-01-09T19:29:33.297Z,17.40
2024-01-09T19:34:41.471Z,20.42
2024-01-09T19:40:05.115Z,19.55
2024-01-09T19:45:24.936Z,13.68
2024-01-09T19:50:28.787Z,13.38
2024-01-09T19:55:35.557Z,19.38
2024-01-09T20:00:43.039Z,18.17
2024-01-09T20:05:49.522Z,18.35
2024-01-09T20:10:55.091Z,14.57
2024-01-09T20:15:59.299Z,16.52
2024-01-09T20:21:04.969Z,18.10
2024-01-09T20:26:09.074Z,16.27
2024-01-09T20:31:12.086Z,15.05
2024-01-09T20:36:14.978Z,19.65
2024-01-09T20:41:19.067Z,16.85
2024-01-09T20:46:22.363Z,15.57
2024-01-09T20:51:26.993Z,18.35
2024-01-09T20:56:29.564Z,15.38
2024-01-09T21:01:36.469Z,16.70
2024-01-09T21:06:40.573Z,18.15
2024-01-09T21:11:46.494Z,17.92
2024-01-09T21:16:49.329Z,18.23
2024-01-09T21:21:52.037Z,15.00
2024-01-09T21:26:55.263Z,17.05
2024-01-09T21:31:57.772Z,14.32
2024-01-09T21:37:00.300Z,14.65
2024-01-09T21:42:03.103Z,17.85
2024-01-09T21:47:07.334Z,17.95
2024-01-09T21:52:13.341Z,17.92
2024-01-09T21:57:16.581Z,16.48
2024-01-09T22:02:27.653Z,19.48
2024-01-09T22:07:30.646Z,12.57
2024-01-09T22:12:34.733Z,18.08
2024-01-09T22:17:38.766Z,16.33
2024-01-09T22:22:43.109Z,16.15
2024-01-09T22:27:46.114Z,18.20
2024-01-09T22:32:49.828Z,13.63
2024-01-09T22:37:53.057Z,18.13
2024-01-09T22:42:57.713Z,15.77
2024-01-09T22:48:04.047Z,15.38
2024-01-09T22:53:11.412Z,15.10
2024-01-09T22:58:15.804Z,16.50
2024-01-09T23:03:20.356Z,14.60
2024-01-09T23:13:28.391Z,19.38
2024-01-09T23:18:32.385Z,18.33
2024-01-09T23:23:36.020Z,18.30
2024-01-09T23:28:40.141Z,19.25
2024-01-09T23:33:43.689Z,17.70
2024-01-09T23:38:47.332Z,18.38
2024-01-09T23:43:50.953Z,15.70
2024-01-09T23:48:54.085Z,16.15
2024-01-09T23:53:56.991Z,13.93
2024-01-09T23:59:00.958Z,15.27
